Latest Weather Observations for Territory Grape Farm

IDD60801

Issued at 2:31 pm CST Tuesday 31 March 2015 (issued every 30 minutes, with the page automatically refreshed every 10 minutes)

About weather observations | Map of weather stations | Latest weather observations for NT | Other Formats
Station Details ID: 015643 Name: TERRITORY GRAPE FARM Lat: -22.45 Lon: 133.64 Height: 565.6 m
Data from the previous 72 hours. | See also: Recent months at Territory Grape Farm
Date/Time
CST
Temp
°C
App
Temp
°C
Dew
Point
Rel
Hum
%
Delta-T
°C
Wind Press
QNH
hPa
Press
MSL
hPa
Rain
since 9 am
mm
Dir
 
Spd
km/h
Gust
km/h
Spd
kts
Gust
kts
31/02:30pm 33.0 30.5 4.7 17 15.3 - 7 11 4 6 1016.9 1013.0 -
31/02:00pm 33.1 29.8 4.8 17 15.3 - 11 15 6 8 1017.4 - -
31/01:30pm 31.9 - 4.6 18 14.6 - - - - - 1017.9 1014.1 -
31/01:00pm 31.8 - 5.3 19 14.4 - - - - - 1018.5 - -
31/12:30pm 30.8 - 5.3 20 13.7 - - - - - 1019.1 1015.3 -
31/12:00pm 30.1 - 5.4 21 13.3 - - - - - 1019.6 1015.8 -
31/11:30am 29.8 - 5.1 21 13.2 - - - - - 1020.4 1016.6 -
31/11:00am 29.3 25.2 6.0 23 12.6 - 17 22 9 12 1020.8 - -
31/10:30am 27.6 - 5.8 25 11.6 - - - - - 1021.2 1017.4 -
31/10:00am 27.0 - 6.4 27 11.1 - - - - - 1021.4 - -
31/09:30am 26.1 - 6.2 28 10.6 - - - - - 1021.6 1017.8 -
31/09:00am 25.5 19.8 6.7 30 10.0 - 26 32 14 17 1021.7 1017.9 0.0
31/08:30am 23.9 - 6.2 32 9.3 - - - - - 1021.7 1017.9 -
31/08:00am 22.4 - 6.2 35 8.5 - - - - - 1021.5 - -
31/07:30am 20.0 17.3 5.6 39 7.3 - 9 11 5 6 1021.4 1017.6 -
31/07:00am 17.8 - 5.1 43 6.3 - - - - - 1021.1 - -
31/06:30am 17.4 - 4.4 42 6.3 - - - - - 1020.8 1017.0 -
31/06:00am 17.8 14.6 3.3 38 6.9 - 9 9 5 5 1020.7 1016.9 -
31/05:30am 20.8 - 4.0 33 8.3 - - - - - 1020.3 1016.5 -
31/05:00am 21.3 17.2 4.4 33 8.4 - 15 20 8 11 1019.7 - -
31/04:30am 20.4 - 4.4 35 7.9 - - - - - 1019.7 1015.9 -
31/04:00am 20.1 - 4.6 36 7.7 - - - - - 1019.6 - -
31/03:30am 21.6 - 5.1 34 8.4 - - - - - 1019.5 1015.7 -
31/03:00am 21.3 - 5.6 36 8.0 - - - - - 1019.6 1015.8 0.0
31/02:30am 21.4 - 5.7 36 8.0 - - - - - 1019.7 1015.9 -
31/02:00am 22.2 - 6.0 35 8.4 - - - - - 1019.8 - -
31/01:30am 22.0 - 6.3 36 8.2 - - - - - 1020.1 1016.2 -
31/01:00am 21.0 - 5.8 37 7.8 - - - - - 1020.3 - -
31/12:30am 22.0 18.9 5.4 34 8.5 - 11 11 6 6 1020.6 1016.8 -
31/12:00am 22.4 19.3 5.4 33 8.7 - 11 11 6 6 1020.8 1017.0 -
 
Date/Time
CST
Temp
°C
App
Temp
°C
Dew
Point
Rel
Hum
%
Delta-T
°C
Wind Press
QNH
hPa
Press
MSL
hPa
Rain
since 9 am
mm
Dir
 
Spd
km/h
Gust
km/h
Spd
kts
Gust
kts
30/11:30pm 23.2 20.3 4.7 30 9.4 - 9 9 5 5 1020.9 1017.1 -
30/11:00pm 24.8 - 5.1 28 10.2 - - - - - 1021.0 - -
30/10:30pm 25.4 21.7 4.5 26 10.7 - 13 15 7 8 1021.0 1017.2 -
30/10:00pm 26.1 - 4.6 25 11.1 - - - - - 1021.0 - -
30/09:30pm 27.0 - 4.1 23 11.8 - - - - - 1020.9 1017.1 -
30/09:00pm 27.2 - 4.3 23 11.9 - - - - - 1020.7 1016.9 0.0
30/08:30pm 27.8 - 4.2 22 12.2 - - - - - 1020.4 1016.6 -
30/08:00pm 28.0 - 3.0 20 12.7 - - - - - 1020.1 - -
30/07:30pm 28.6 - 2.7 19 13.2 - - - - - 1019.6 1015.8 -
30/07:00pm 30.4 26.0 2.6 17 14.3 - 15 17 8 9 1019.2 - -
30/06:30pm 31.2 - 2.4 16 14.8 - - - - - 1018.8 1015.0 -
30/06:00pm 32.5 29.8 3.5 16 15.3 - 7 9 4 5 1018.5 1014.6 -
30/05:30pm 33.2 - 3.1 15 15.8 - - - - - 1018.5 1014.6 -
30/05:00pm 33.6 - 3.4 15 16.0 - - - - - 1018.3 - -
30/04:30pm 34.1 - 3.8 15 16.2 - - - - - 1018.0 1014.2 -
30/04:00pm 33.9 - 3.7 15 16.1 - - - - - 1018.2 - -
30/03:30pm 33.7 - 5.3 17 15.5 - - - - - 1018.3 1014.4 -
30/03:00pm 33.5 - 5.9 18 15.2 - - - - - 1018.4 1014.5 0.0
30/02:30pm 33.9 - 6.3 18 15.3 - - - - - 1018.6 1014.7 -
30/02:00pm 33.6 - 6.0 18 15.3 - - - - - 1018.9 - -
30/01:30pm 33.2 - 6.5 19 14.8 - - - - - 1019.3 1015.5 -
30/01:00pm 33.1 - 7.1 20 14.6 - - - - - 1019.7 - -
30/12:30pm 32.0 - 5.5 19 14.4 - - - - - 1020.4 1016.6 -
30/12:00pm 31.9 - 6.2 20 14.1 - - - - - 1020.9 1017.1 -
30/11:30am 31.4 - 6.5 21 13.7 - - - - - 1021.4 1017.6 -
30/11:00am 29.9 - 5.9 22 13.0 - - - - - 1021.8 - -
30/10:30am 29.1 - 5.9 23 12.5 - - - - - 1022.0 1018.2 -
30/10:00am 27.9 - 3.6 21 12.5 - - - - - 1022.4 - -
30/09:30am 27.3 - 2.4 20 12.5 - - - - - 1022.7 1018.9 -
30/09:00am 25.3 - 0.8 20 11.8 - - - - - 1022.7 1018.9 0.0
30/08:30am 23.6 - -0.6 20 11.2 - - - - - 1022.3 1018.5 -
30/08:00am 22.4 - -1.0 21 10.7 - - - - - 1021.7 - -
30/07:30am 18.3 - -1.5 26 8.6 - - - - - 1021.4 1017.6 -
30/07:00am 17.1 - -2.0 27 8.1 - - - - - 1021.2 - -
30/06:30am 17.2 - -1.9 27 8.1 - - - - - 1020.8 1017.0 -
30/06:00am 17.3 - -1.9 27 8.2 - - - - - 1020.5 1016.7 -
30/05:30am 17.3 - -1.4 28 8.1 - - - - - 1020.1 1016.2 -
30/05:00am 16.0 - -2.0 29 7.6 - - - - - 1019.8 - -
30/04:30am 17.8 - -1.4 27 8.3 - - - - - 1019.7 1015.9 -
30/04:00am 18.6 - -1.8 25 8.9 - - - - - 1019.6 - -
30/03:30am 19.9 - -2.4 22 9.7 - - - - - 1019.6 1015.8 -
30/03:00am 21.3 - -2.5 20 10.4 - - - - - 1019.5 1015.7 0.0
30/02:30am 19.4 - -1.7 24 9.2 - - - - - 1019.6 1015.8 -
30/02:00am 19.3 - -1.2 25 9.1 - - - - - 1019.7 - -
30/01:30am 19.0 - -0.9 26 8.8 - - - - - 1020.1 1016.2 -
30/01:00am 18.2 - -2.1 25 8.7 - - - - - 1020.3 - -
30/12:30am 20.7 - -1.8 22 9.9 - - - - - 1020.8 1017.0 -
30/12:00am 21.0 - -2.1 21 10.1 - - - - - 1020.9 1017.1 -
 
Date/Time
CST
Temp
°C
App
Temp
°C
Dew
Point
Rel
Hum
%
Delta-T
°C
Wind Press
QNH
hPa
Press
MSL
hPa
Rain
since 9 am
mm
Dir
 
Spd
km/h
Gust
km/h
Spd
kts
Gust
kts
29/11:30pm 21.4 - -1.2 22 10.1 - - - - - 1021.2 1017.4 -
29/11:00pm 20.7 - -1.8 22 9.9 - - - - - 1021.3 - -
29/10:30pm 21.5 - -3.1 19 10.6 - - - - - 1021.6 1017.8 -
29/10:00pm 22.8 - -2.7 18 11.3 - - - - - 1021.8 - -
29/09:30pm 23.1 - -4.9 15 11.9 - - - - - 1021.6 1017.8 -
29/09:00pm 23.1 - -5.8 14 12.0 - - - - - 1021.6 1017.8 0.0
29/08:30pm 24.8 - -6.5 12 13.1 - - - - - 1021.2 1017.4 -
29/08:00pm 26.2 - -7.8 10 14.1 - - - - - 1020.9 - -
29/07:30pm 27.8 - -7.9 9 14.9 - - - - - 1020.5 1016.7 -
29/07:00pm 28.5 - -7.4 9 15.3 - - - - - 1020.2 - -
29/06:30pm 29.9 - -7.9 8 16.1 - - - - - 1019.7 1015.9 -
29/06:00pm 30.8 - -7.2 8 16.5 - - - - - 1019.3 1015.5 -
29/05:30pm 31.7 - -6.6 8 17.0 - - - - - 1019.0 1015.2 -
29/05:00pm 32.1 - -4.7 9 16.9 - - - - - 1018.7 - -
29/04:30pm 32.4 - -4.5 9 17.0 - - - - - 1018.6 1014.7 -
29/04:00pm 32.3 - -4.6 9 17.0 - - - - - 1018.4 - -
29/03:30pm 32.6 - -4.3 9 17.1 - - - - - 1018.4 1014.5 -
29/03:00pm 32.1 - -4.7 9 16.9 - - - - - 1018.6 1014.7 0.0
29/02:30pm 31.7 - -5.0 9 16.7 - - - - - 1018.8 1015.0 -
29/02:00pm 31.2 - -5.4 9 16.5 - - - - - 1019.1 - -
29/01:30pm 31.9 - -3.5 10 16.5 - - - - - 1019.5 1015.7 -
29/01:00pm 31.0 - -4.1 10 16.2 - - - - - 1019.8 - -
29/12:30pm 31.1 - -2.8 11 15.9 - - - - - 1020.5 1016.7 -
29/12:00pm 29.5 - -4.0 11 15.2 - - - - - 1021.1 1017.3 -
29/11:30am 29.0 - -3.2 12 14.8 - - - - - 1021.5 1017.7 -
29/11:00am 28.9 - -2.3 13 14.6 - - - - - 1021.7 - -
29/10:30am 27.8 - -3.1 13 14.1 - - - - - 1022.1 1018.3 -
29/10:00am 27.1 - -2.7 14 13.7 - - - - - 1022.1 - -
29/09:30am 26.2 - -2.4 15 13.0 - - - - - 1022.1 1018.3 -
29/09:00am 24.8 - -2.7 16 12.3 - - - - - 1022.2 1018.4 0.0
29/08:30am 23.2 - -2.4 18 11.4 - - - - - 1021.8 1018.1 -
29/08:00am 21.4 - -1.8 21 10.3 - - - - - 1021.2 - -
29/07:30am 18.6 - -1.8 25 8.8 - - - - - 1020.6 1016.8 -
29/07:00am 16.5 - -2.0 28 7.8 - - - - - 1020.3 - -
29/06:30am 16.3 - -2.7 27 7.9 - - - - - 1019.7 1015.9 -
29/06:00am 17.5 - -2.7 25 8.5 - - - - - 1019.3 1015.5 -
29/05:30am 17.5 - -2.2 26 8.4 - - - - - 1018.9 1015.1 -
29/05:00am 16.9 - -2.7 26 8.2 - - - - - 1018.6 - -
29/04:30am 17.1 - -3.1 25 8.4 - - - - - 1018.5 1014.6 -
29/04:00am 18.3 - -3.2 23 9.0 - - - - - 1018.6 - -
29/03:30am 19.3 - -2.9 22 9.5 - - - - - 1018.6 1014.7 -
29/03:00am 18.6 - -2.9 23 9.1 - - - - - 1018.5 1014.6 0.0
29/02:30am 19.3 - -3.5 21 9.6 - - - - - 1018.9 1015.1 -
29/02:00am 20.1 - -2.9 21 9.9 - - - - - 1019.2 - -
29/01:30am 20.4 - -4.0 19 10.3 - - - - - 1019.4 1015.6 -
29/01:00am 21.7 - -3.6 18 10.9 - - - - - 1019.4 - -
29/12:30am 22.1 - -3.3 18 11.0 - - - - - 1019.4 1015.6 -
29/12:00am 22.9 - -3.4 17 11.5 - - - - - 1019.7 1015.9 -
 
Date/Time
CST
Temp
°C
App
Temp
°C
Dew
Point
Rel
Hum
%
Delta-T
°C
Wind Press
QNH
hPa
Press
MSL
hPa
Rain
since 9 am
mm
Dir
 
Spd
km/h
Gust
km/h
Spd
kts
Gust
kts
28/11:30pm 23.6 - -3.7 16 11.9 - - - - - 1019.8 1016.0 -
28/11:00pm 24.6 - -3.7 15 12.5 - - - - - 1020.3 - -
28/10:30pm 25.3 - -3.2 15 12.7 - - - - - 1020.2 1016.3 -
28/10:00pm 25.6 - -2.9 15 12.9 - - - - - 1019.9 - -
28/09:30pm 24.1 - -0.9 19 11.5 - - - - - 1019.7 1015.9 -
28/09:00pm 23.8 - -1.2 19 11.4 - - - - - 1019.4 1015.6 0.0
28/08:30pm 24.7 - -0.4 19 11.7 - - - - - 1019.2 1015.4 -
28/08:00pm 25.5 - -0.5 18 12.2 - - - - - 1019.0 - -
28/07:30pm 26.1 - 0.0 18 12.4 - - - - - 1018.6 1014.7 -
28/07:00pm 27.9 - -1.1 15 13.8 - - - - - 1018.0 - -
28/06:30pm 29.7 - -1.6 13 14.9 - - - - - 1017.5 1013.7 -
28/06:00pm 31.1 - -1.6 12 15.7 - - - - - 1017.1 1013.3 -
28/05:30pm 31.7 - -2.3 11 16.2 - - - - - 1016.8 1012.9 -
28/05:00pm 32.0 - -2.1 11 16.4 - - - - - 1016.6 - -
28/04:30pm 32.1 - -2.0 11 16.4 - - - - - 1016.6 1012.7 -
28/04:00pm 32.0 - -2.1 11 16.4 - - - - - 1016.6 - -
28/03:30pm 31.9 - -2.2 11 16.3 - - - - - 1016.6 1012.7 -
28/03:00pm 32.0 - -2.1 11 16.3 - - - - - 1016.9 1013.0 0.0

Other Formats:

Comma delimited format used in spreadsheet applications
http://www.bom.gov.au/fwo/IDD60801/IDD60801.94328.axf

JavaScript Object Notation format (JSON) in row-major order
http://www.bom.gov.au/fwo/IDD60801/IDD60801.94328.json